Time;durP1;ratioP1;P1;durP2;ratioP2;P2;SDS_P1;SDS_P2;PMS_P1;PMS_P2;Temp;Humidity;BMP_temperature;BMP_pressure;BME280_temperature;BME280_humidity;BME280_pressure;Samples;Min_cycle;Max_cycle;Signal;HPM_P1;HPM_P2
2022/05/03 00:01:13;;;;;;;;;41.00;31.50;;;;;22.60;34.01;101313.00;5021657;28;44817;-83
2022/05/03 00:03:57;;;;;;;;;35.75;26.75;;;;;22.45;34.54;101311.13;5007154;28;46183;-83
2022/05/03 00:06:32;;;;;;;;;44.50;33.75;;;;;23.48;32.60;101319.31;5025014;28;45594;-83
2022/05/03 00:09:06;;;;;;;;;38.50;32.50;;;;;23.29;32.96;101316.16;5023675;28;45223;-83
2022/05/03 00:11:39;;;;;;;;;39.25;31.00;;;;;22.95;33.22;101311.81;5021887;28;45393;-83
2022/05/03 00:14:20;;;;;;;;;44.50;32.25;;;;;22.80;33.02;101305.47;5021507;28;45549;-83
2022/05/03 00:16:49;;;;;;;;;35.50;25.75;;;;;22.77;33.81;101311.16;5019952;28;45665;-84
2022/05/03 00:19:15;;;;;;;;;36.25;30.00;;;;;23.13;33.12;101303.56;5020398;28;45994;-83
2022/05/03 00:21:40;;;;;;;;;38.50;31.25;;;;;22.77;33.86;101300.41;5003435;28;45447;-83
2022/05/03 00:24:06;;;;;;;;;43.50;33.75;;;;;22.88;32.89;101297.38;5003111;28;46220;-83
2022/05/03 00:26:35;;;;;;;;;43.25;30.75;;;;;22.79;33.79;101303.78;5021223;28;45346;-83
2022/05/03 00:29:00;;;;;;;;;42.25;34.25;;;;;22.75;33.21;101302.44;5020937;28;45467;-83
2022/05/03 00:31:27;;;;;;;;;40.75;33.75;;;;;22.72;33.65;101300.88;5021003;28;45341;-83
2022/05/03 00:33:57;;;;;;;;;44.00;34.25;;;;;22.36;34.31;101295.00;5002886;28;48601;-83
2022/05/03 00:36:23;;;;;;;;;39.25;32.00;;;;;22.24;34.19;101295.47;5019575;28;45331;-83
2022/05/03 00:38:49;;;;;;;;;41.50;32.50;;;;;22.39;34.15;101291.97;5003407;28;45227;-83
2022/05/03 00:41:30;;;;;;;;;40.50;29.50;;;;;22.66;33.46;101303.41;5019899;28;45483;-83
2022/05/03 00:47:10;;;;;;;;;40.50;32.25;;;;;23.93;32.08;101293.53;5021307;28;45256;-83
2022/05/03 00:50:05;;;;;;;;;39.75;32.25;;;;;22.75;33.25;101297.06;5022176;28;45455;-83
2022/05/03 00:52:40;;;;;;;;;36.00;30.25;;;;;22.29;34.44;101295.81;5020637;28;45899;-83
2022/05/03 00:55:40;;;;;;;;;36.50;31.50;;;;;22.76;33.23;101294.16;5024902;28;45448;-83
2022/05/03 00:58:19;;;;;;;;;38.50;33.75;;;;;22.66;33.59;101289.97;5020432;28;45623;-83
2022/05/03 01:01:13;;;;;;;;;38.00;31.50;;;;;24.63;30.62;101284.47;5024784;28;45309;-83
2022/05/03 01:04:06;;;;;;;;;36.00;31.50;;;;;22.43;33.84;101292.47;5022554;28;45419;-83
2022/05/03 01:06:51;;;;;;;;;46.25;32.00;;;;;22.39;33.79;101296.50;5020557;28;47297;-83
2022/05/03 01:09:29;;;;;;;;;39.25;31.75;;;;;22.14;34.30;101294.78;5020967;28;45227;-83
2022/05/03 01:12:10;;;;;;;;;37.00;28.00;;;;;22.81;33.42;101304.44;5020948;28;45373;-83
2022/05/03 01:15:02;;;;;;;;;39.75;31.75;;;;;23.01;32.74;101300.41;5020400;28;45156;-83
2022/05/03 01:17:48;;;;;;;;;38.50;31.75;;;;;23.18;32.59;101289.56;5005551;28;45569;-83
2022/05/03 01:20:22;;;;;;;;;42.75;31.75;;;;;23.32;32.12;101299.63;5019885;28;45756;-83
2022/05/03 01:23:09;;;;;;;;;39.00;30.25;;;;;23.52;32.00;101292.88;5020494;28;45214;-83
2022/05/03 01:25:44;;;;;;;;;33.75;30.00;;;;;23.56;31.93;101288.81;5018884;28;45805;-83
2022/05/03 01:28:29;;;;;;;;;36.75;31.50;;;;;23.74;32.08;101294.81;5019645;28;46325;-83
2022/05/03 01:31:06;;;;;;;;;40.00;33.75;;;;;22.46;33.61;101296.69;5002052;28;45301;-83
2022/05/03 01:33:36;;;;;;;;;44.50;34.25;;;;;22.21;33.88;101285.91;5020215;28;45568;-83
2022/05/03 01:36:05;;;;;;;;;41.25;31.00;;;;;21.48;35.08;101287.47;5001950;28;45432;-83
2022/05/03 01:38:42;;;;;;;;;42.25;32.50;;;;;21.33;35.46;101281.84;5020059;28;45167;-83
2022/05/03 01:41:34;;;;;;;;;43.75;34.00;;;;;21.79;34.82;101283.22;5001854;28;45962;-83
2022/05/03 01:44:37;;;;;;;;;44.00;32.50;;;;;21.90;34.81;101285.63;5019984;28;45332;-83
2022/05/03 01:47:43;;;;;;;;;48.75;36.00;;;;;21.96;34.50;101284.09;5009598;28;45552;-83
2022/05/03 01:50:38;;;;;;;;;34.75;30.50;;;;;21.27;35.80;101277.97;5020215;28;47201;-83
2022/05/03 01:53:36;;;;;;;;;42.25;29.50;;;;;22.38;33.71;101279.53;5023953;28;46762;-83
2022/05/03 01:56:05;;;;;;;;;38.25;32.00;;;;;22.15;34.19;101277.63;5005929;28;45188;-83
2022/05/03 01:58:34;;;;;;;;;37.50;28.25;;;;;22.12;34.25;101273.44;5004884;28;45618;-83
2022/05/03 02:01:09;;;;;;;;;32.75;28.25;;;;;21.94;34.81;101273.50;5020094;28;47038;-83
2022/05/03 02:03:58;;;;;;;;;39.00;32.00;;;;;20.92;35.97;101267.31;5002589;28;45348;-83
2022/05/03 02:06:50;;;;;;;;;40.50;29.00;;;;;21.24;35.54;101270.22;5020158;28;45409;-83
2022/05/03 02:09:25;;;;;;;;;38.75;30.75;;;;;23.03;32.69;101260.66;5019799;28;45309;-83
2022/05/03 02:12:01;;;;;;;;;37.00;31.00;;;;;21.74;34.95;101274.81;5019674;28;45502;-83
2022/05/03 02:14:46;;;;;;;;;39.50;32.00;;;;;21.75;34.66;101264.91;5019578;28;45493;-83
2022/05/03 02:17:26;;;;;;;;;39.50;30.00;;;;;21.70;34.73;101276.13;5000393;28;45404;-82
2022/05/03 02:20:03;;;;;;;;;38.75;27.25;;;;;20.89;36.01;101279.22;4998001;28;46231;-83
2022/05/03 02:22:37;;;;;;;;;31.75;26.75;;;;;20.53;36.66;101278.44;5018091;28;46993;-83
2022/05/03 02:25:34;;;;;;;;;39.75;31.75;;;;;35.64;19.30;101249.75;5019768;28;45222;-83
2022/05/03 02:28:24;;;;;;;;;41.25;29.25;;;;;23.92;30.54;101283.75;5019153;28;45261;-83
2022/05/03 02:30:51;;;;;;;;;34.75;28.50;;;;;22.31;33.39;101280.34;5015322;28;45504;-83
2022/05/03 02:33:25;;;;;;;;;35.25;30.00;;;;;20.93;35.56;101279.75;5019254;28;46555;-83
2022/05/03 02:35:56;;;;;;;;;37.75;30.25;;;;;20.71;35.66;101285.63;5006356;28;45587;-83
2022/05/03 02:38:29;;;;;;;;;34.00;27.75;;;;;20.79;35.97;101285.66;5001490;28;45344;-83
2022/05/03 02:40:59;;;;;;;;;30.00;27.50;;;;;21.35;35.08;101285.22;5020524;28;45399;-83
2022/05/03 02:43:26;;;;;;;;;36.75;28.25;;;;;20.39;36.92;101294.25;5021887;28;45525;-83
2022/05/03 02:46:14;;;;;;;;;38.75;28.50;;;;;20.75;35.75;101293.22;5022514;28;45739;-83
2022/05/03 02:48:55;;;;;;;;;36.75;30.75;;;;;21.46;35.19;101284.94;5023282;28;45410;-83
2022/05/03 02:51:27;;;;;;;;;37.50;29.50;;;;;21.09;36.05;101282.53;5020118;28;45357;-82
2022/05/03 02:54:15;;;;;;;;;40.75;30.00;;;;;21.79;34.61;101285.91;5011774;28;46272;-83
2022/05/03 02:57:15;;;;;;;;;33.25;30.50;;;;;21.91;34.24;101279.25;5021563;28;45320;-83
2022/05/03 03:02:36;;;;;;;;;35.00;27.75;;;;;23.28;31.75;101288.38;5018899;28;45398;-83
2022/05/03 03:05:09;;;;;;;;;37.50;29.50;;;;;22.27;33.29;101279.00;5019474;28;45398;-83
2022/05/03 03:07:48;;;;;;;;;28.50;25.50;;;;;22.02;33.79;101280.81;5004529;28;45744;-83
2022/05/03 03:10:22;;;;;;;;;33.25;27.25;;;;;21.84;34.56;101274.69;5022605;28;45430;-83
2022/05/03 03:12:52;;;;;;;;;36.75;28.50;;;;;23.05;32.70;101274.78;5022306;28;45423;-83
2022/05/03 03:15:24;;;;;;;;;35.50;30.00;;;;;23.03;32.93;101284.06;5001201;28;47695;-83
2022/05/03 03:17:51;;;;;;;;;46.00;30.50;;;;;22.86;33.13;101272.44;5019926;28;45954;-83
2022/05/03 03:20:24;;;;;;;;;37.00;27.75;;;;;22.28;33.50;101276.16;5016097;28;45946;-83
2022/05/03 03:22:49;;;;;;;;;35.00;30.50;;;;;22.07;34.14;101270.38;5022207;28;45438;-83
2022/05/03 03:25:19;;;;;;;;;33.00;29.00;;;;;21.90;34.33;101285.63;5022120;28;45392;-83
2022/05/03 03:27:51;;;;;;;;;37.50;28.00;;;;;21.74;34.26;101277.50;5022215;28;45646;-83
2022/05/03 03:30:17;;;;;;;;;34.75;31.00;;;;;21.69;34.67;101281.66;5003987;28;45477;-82
2022/05/03 03:32:45;;;;;;;;;39.25;29.50;;;;;21.63;34.95;101275.94;5021765;28;45675;-82
2022/05/03 03:35:14;;;;;;;;;37.75;30.75;;;;;21.64;34.96;101279.47;5022719;28;46323;-83
2022/05/03 03:37:45;;;;;;;;;45.50;32.00;;;;;21.75;34.38;101264.91;5024108;28;45447;-82
2022/05/03 03:40:13;;;;;;;;;47.50;32.00;;;;;21.80;34.69;101268.78;5025771;28;45290;-83
2022/05/03 03:42:39;;;;;;;;;33.25;25.00;;;;;28.30;29.35;101250.28;5025633;28;45350;-83
2022/05/03 03:45:07;;;;;;;;;37.25;29.25;;;;;35.76;19.16;101235.91;5025496;28;45417;-83
2022/05/03 03:47:37;;;;;;;;;35.75;29.75;;;;;37.08;17.81;101235.91;5007376;28;45425;-83
2022/05/03 03:50:05;;;;;;;;;40.75;30.50;;;;;26.55;26.47;101257.06;5004943;28;45258;-82
2022/05/03 03:52:32;;;;;;;;;40.50;32.00;;;;;23.49;31.33;101277.88;5022035;28;45563;-83
2022/05/03 03:54:59;;;;;;;;;40.50;32.00;;;;;22.65;32.35;101266.75;5021638;28;46583;-83
2022/05/03 03:57:24;;;;;;;;;41.75;32.75;;;;;22.43;33.05;101264.72;5021461;28;45544;-83
2022/05/03 03:59:51;;;;;;;;;31.50;28.50;;;;;34.85;20.09;101228.13;5003477;28;46815;-82
2022/05/03 04:02:16;;;;;;;;;39.75;30.25;;;;;37.10;18.05;101230.97;5021783;28;45499;-82
2022/05/03 04:04:44;;;;;;;;;38.75;31.75;;;;;37.83;16.89;101237.34;5021150;28;46397;-83
2022/05/03 04:07:10;;;;;;;;;38.00;30.50;;;;;38.05;16.98;101244.56;5021354;28;45373;-83
2022/05/03 04:09:36;;;;;;;;;39.00;29.00;;;;;38.18;16.75;101253.16;5021556;28;45486;-83
2022/05/03 04:12:04;;;;;;;;;45.50;31.50;;;;;38.33;16.14;101237.72;5021577;28;45497;-83
2022/05/03 04:14:30;;;;;;;;;40.00;31.75;;;;;38.41;16.03;101248.19;4999598;28;47417;-82
2022/05/03 04:16:55;;;;;;;;;37.25;28.75;;;;;38.51;15.94;101237.19;5013376;28;45257;-83
2022/05/03 04:19:21;;;;;;;;;44.75;31.75;;;;;38.54;16.47;101248.47;5017482;28;45598;-82
2022/05/03 04:21:47;;;;;;;;;39.75;29.50;;;;;38.54;15.98;101244.88;5021210;28;45307;-83
2022/05/03 04:24:13;;;;;;;;;37.25;30.25;;;;;38.62;15.65;101243.50;5003127;28;48273;-83
2022/05/03 04:26:38;;;;;;;;;36.50;30.50;;;;;38.53;16.04;101252.34;5021512;28;45441;-83
2022/05/03 04:29:04;;;;;;;;;41.50;30.75;;;;;38.55;15.66;101252.06;5021913;28;45365;-83
2022/05/03 04:31:32;;;;;;;;;42.00;31.00;;;;;38.61;15.94;101256.47;5005689;28;45785;-83
2022/05/03 04:33:58;;;;;;;;;37.50;31.75;;;;;38.46;15.68;101251.78;5024191;28;45435;-83
2022/05/03 04:36:25;;;;;;;;;47.00;32.75;;;;;38.60;15.60;101249.31;5024340;28;45165;-83
2022/05/03 04:38:51;;;;;;;;;45.75;35.25;;;;;38.77;15.68;101252.59;5021176;28;45296;-82
2022/05/03 04:41:16;;;;;;;;;46.00;33.75;;;;;38.77;15.74;101255.38;5015491;28;45223;-82
2022/05/03 04:43:42;;;;;;;;;43.50;31.75;;;;;38.81;15.32;101248.16;5005124;28;46981;-83
2022/05/03 04:46:07;;;;;;;;;44.25;34.00;;;;;38.84;15.48;101244.03;5020987;28;45355;-83
2022/05/03 04:48:33;;;;;;;;;37.00;30.00;;;;;38.89;15.85;101253.13;5003116;28;45395;-83
2022/05/03 04:50:58;;;;;;;;;46.00;36.00;;;;;38.89;15.25;101255.03;5002243;28;45384;-83
2022/05/03 04:53:24;;;;;;;;;45.50;35.00;;;;;38.89;15.52;101241.22;5020658;28;45494;-83
2022/05/03 04:55:50;;;;;;;;;42.50;32.75;;;;;38.76;15.52;101253.72;5020549;28;45415;-83
2022/05/03 04:58:16;;;;;;;;;48.75;34.25;;;;;38.52;15.42;101244.34;5020369;28;45328;-83
2022/05/03 05:00:42;;;;;;;;;39.00;34.00;;;;;38.31;15.94;101264.75;5002765;28;45517;-82
2022/05/03 05:03:08;;;;;;;;;37.00;31.00;;;;;38.41;16.06;101253.72;5002441;28;48314;-83
2022/05/03 05:05:33;;;;;;;;;45.25;32.75;;;;;38.54;16.14;101248.47;5019230;28;45257;-83
2022/05/03 05:08:06;;;;;;;;;50.25;36.25;;;;;38.56;15.65;101253.72;5001748;28;45259;-82
2022/05/03 05:10:32;;;;;;;;;42.25;33.25;;;;;38.41;15.80;101260.06;5017420;28;45594;-82
2022/05/03 05:13:02;;;;;;;;;42.75;32.25;;;;;38.34;15.87;101262.25;5002007;28;47213;-83
2022/05/03 05:15:28;;;;;;;;;33.25;28.00;;;;;38.49;15.67;101264.19;5005930;28;45675;-83
2022/05/03 05:17:57;;;;;;;;;42.50;32.25;;;;;38.63;15.82;101268.06;5018102;28;46189;-82
2022/05/03 05:20:23;;;;;;;;;39.75;32.75;;;;;38.61;15.77;101267.50;5017071;28;45801;-83
2022/05/03 05:22:49;;;;;;;;;38.75;31.75;;;;;38.02;16.23;101269.94;5021656;28;45375;-82
2022/05/03 05:25:14;;;;;;;;;39.00;33.00;;;;;27.28;24.64;101303.72;5013718;28;45389;-83
2022/05/03 05:27:41;;;;;;;;;45.25;34.50;;;;;22.58;31.00;101312.31;5023783;28;45295;-83
2022/05/03 05:30:07;;;;;;;;;38.50;33.75;;;;;21.46;33.35;101319.88;5024008;28;45329;-82
2022/05/03 05:32:37;;;;;;;;;49.25;35.75;;;;;21.67;33.31;101305.22;5013772;28;45458;-82
2022/05/03 05:35:04;;;;;;;;;50.00;35.00;;;;;21.62;33.90;101321.81;4998422;28;45540;-83
2022/05/03 05:37:32;;;;;;;;;47.50;34.50;;;;;21.47;33.76;101312.66;5021606;28;45167;-83
2022/05/03 05:39:58;;;;;;;;;44.25;33.00;;;;;22.03;33.55;101312.09;5020694;28;45596;-82
2022/05/03 05:42:23;;;;;;;;;46.75;33.25;;;;;22.26;32.70;101320.38;5018914;28;45628;-82
2022/05/03 05:44:49;;;;;;;;;42.50;31.00;;;;;21.68;33.81;101315.78;5018639;28;45368;-83
2022/05/03 05:47:14;;;;;;;;;37.00;30.50;;;;;21.48;34.30;101317.88;5017985;28;45583;-83
2022/05/03 05:49:40;;;;;;;;;39.50;32.75;;;;;20.56;35.94;101325.59;4998032;28;45448;-83
2022/05/03 05:54:50;;;;;;;;;41.00;31.25;;;;;21.71;34.56;101323.53;5018477;28;45533;-82
2022/05/03 05:57:16;;;;;;;;;41.25;29.25;;;;;21.81;33.89;101318.03;5016709;28;45451;-82
2022/05/03 05:59:41;;;;;;;;;44.50;30.00;;;;;21.70;34.99;101326.38;5012339;28;45534;-82
2022/05/03 06:02:07;;;;;;;;;36.50;30.75;;;;;21.85;34.45;101322.06;5019486;28;45360;-82
2022/05/03 06:04:33;;;;;;;;;44.00;32.75;;;;;22.04;34.18;101321.81;5018425;28;46115;-81
2022/05/03 06:06:59;;;;;;;;;39.50;31.75;;;;;22.06;34.08;101329.72;5014471;28;45606;-83
2022/05/03 06:09:24;;;;;;;;;43.25;32.25;;;;;21.97;34.40;101324.31;4997451;28;45783;-82
2022/05/03 06:11:50;;;;;;;;;41.50;32.00;;;;;22.12;34.40;101329.94;5015095;28;45669;-81
2022/05/03 06:14:15;;;;;;;;;35.50;26.50;;;;;22.87;33.42;101322.63;5019332;28;45298;-83
2022/05/03 06:16:51;;;;;;;;;43.00;33.50;;;;;22.79;33.76;101330.69;5014178;28;45362;-82
2022/05/03 06:19:17;;;;;;;;;43.00;32.50;;;;;22.95;33.04;101340.63;5015207;28;45547;-83
2022/05/03 06:21:42;;;;;;;;;42.75;33.75;;;;;23.25;32.97;101341.75;5013847;28;45495;-81
2022/05/03 06:24:08;;;;;;;;;43.75;33.50;;;;;22.92;33.27;101330.19;5022119;28;45340;-81
2022/05/03 06:26:34;;;;;;;;;32.50;27.75;;;;;22.98;32.99;101335.75;5022919;28;45498;-82
2022/05/03 06:29:00;;;;;;;;;36.50;32.00;;;;;22.84;33.39;101338.28;5022660;28;45514;-80
2022/05/03 06:31:26;;;;;;;;;42.50;32.50;;;;;22.91;32.97;101334.75;5002487;28;48331;-82
2022/05/03 06:33:51;;;;;;;;;37.75;32.75;;;;;23.08;33.14;101335.56;5020025;28;45431;-81
2022/05/03 06:36:17;;;;;;;;;47.50;34.50;;;;;22.47;33.80;101342.28;5019798;28;45380;-82
2022/05/03 06:38:43;;;;;;;;;38.75;32.25;;;;;22.98;34.01;101349.22;5019085;28;45399;-81
2022/05/03 06:41:09;;;;;;;;;43.75;33.25;;;;;33.76;21.19;101314.44;5003954;28;46067;-83
2022/05/03 06:43:34;;;;;;;;;46.00;33.50;;;;;24.01;31.68;101358.25;5004892;28;45637;-83
2022/05/03 06:46:00;;;;;;;;;48.00;36.50;;;;;23.70;32.04;101358.19;5005097;28;45317;-83
2022/05/03 06:48:25;;;;;;;;;36.00;30.25;;;;;23.37;32.67;101343.94;5004663;28;45421;-84
2022/05/03 06:50:51;;;;;;;;;41.00;31.75;;;;;23.22;32.79;101342.94;5022480;28;45272;-84
2022/05/03 06:53:16;;;;;;;;;38.75;32.00;;;;;29.12;28.72;101327.91;4998529;28;45353;-83
2022/05/03 06:55:42;;;;;;;;;35.25;31.25;;;;;36.34;18.73;101320.38;4989135;28;45315;-83
2022/05/03 06:58:07;;;;;;;;;44.50;33.25;;;;;36.88;18.20;101323.91;5022055;28;45341;-83
2022/05/03 07:00:32;;;;;;;;;41.75;34.00;;;;;24.33;30.81;101343.75;5022203;28;45310;-84
2022/05/03 07:02:58;;;;;;;;;36.00;31.00;;;;;23.92;31.77;101355.75;5022126;28;45372;-84
2022/05/03 07:05:23;;;;;;;;;46.00;34.00;;;;;23.16;32.46;101351.72;5004221;28;45529;-83
2022/05/03 07:07:49;;;;;;;;;41.00;32.25;;;;;22.58;33.62;101355.38;5022895;28;45420;-82
2022/05/03 07:10:14;;;;;;;;;43.50;33.00;;;;;22.50;33.69;101346.47;5005780;28;47075;-83
2022/05/03 07:12:39;;;;;;;;;48.25;32.50;;;;;22.29;34.17;101355.03;5023985;28;45563;-84
2022/05/03 07:15:05;;;;;;;;;40.25;33.25;;;;;22.26;33.94;101348.13;5024384;28;45246;-84
2022/05/03 07:22:59;;;;;;;;;47.50;32.00;;;;;22.45;33.62;101351.50;5026144;28;45360;-83
2022/05/03 07:25:24;;;;;;;;;44.00;31.75;;;;;35.93;19.47;101321.84;5025348;28;45408;-84
2022/05/03 07:27:50;;;;;;;;;41.25;29.50;;;;;37.74;17.47;101318.94;5023735;28;45313;-84
2022/05/03 07:30:16;;;;;;;;;44.25;34.25;;;;;38.28;17.50;101326.81;5022201;28;45421;-81
2022/05/03 07:32:42;;;;;;;;;49.25;37.00;;;;;28.76;24.48;101353.59;5003623;28;45470;-82
2022/05/03 07:35:10;;;;;;;;;41.00;33.00;;;;;24.44;30.15;101358.69;5015967;28;45918;-82
2022/05/03 07:37:36;;;;;;;;;37.00;32.00;;;;;23.46;31.76;101366.31;5025252;28;45448;-83
2022/05/03 07:40:04;;;;;;;;;42.75;32.25;;;;;23.38;31.77;101361.78;5030981;28;46343;-83
2022/05/03 07:42:29;;;;;;;;;39.25;29.50;;;;;23.05;33.42;101355.59;5006449;28;45568;-83
2022/05/03 07:44:54;;;;;;;;;43.25;34.75;;;;;23.23;33.14;101363.50;5029783;28;45519;-82
2022/05/03 07:47:20;;;;;;;;;44.75;30.25;;;;;23.44;33.13;101363.78;5007396;28;45609;-82
2022/05/03 07:49:45;;;;;;;;;38.00;32.50;;;;;24.59;32.05;101362.28;5001467;28;48322;-84
2022/05/03 07:52:11;;;;;;;;;39.25;27.50;;;;;23.94;32.11;101370.75;5000590;28;45297;-84
2022/05/03 07:54:40;;;;;;;;;40.75;32.00;;;;;23.93;32.69;101362.84;5012041;28;45312;-84
2022/05/03 07:57:06;;;;;;;;;35.25;31.25;;;;;24.43;32.09;101365.94;5020009;28;45466;-84
2022/05/03 07:59:33;;;;;;;;;38.25;33.50;;;;;24.88;31.32;101370.50;5027510;28;47522;-84
2022/05/03 08:01:59;;;;;;;;;40.25;32.75;;;;;24.85;31.63;101362.78;5017579;28;45401;-84
2022/05/03 08:04:24;;;;;;;;;40.25;30.75;;;;;25.22;30.94;101363.84;5009061;28;45422;-84
2022/05/03 08:06:50;;;;;;;;;41.25;33.00;;;;;25.28;30.13;101363.09;5021033;28;45388;-84
2022/05/03 08:09:15;;;;;;;;;42.75;33.50;;;;;25.57;30.18;101368.53;5020959;28;45448;-84
2022/05/03 08:11:41;;;;;;;;;40.25;32.50;;;;;25.67;30.08;101361.00;5020760;28;45356;-84
2022/05/03 08:14:06;;;;;;;;;35.75;30.00;;;;;25.10;30.64;101357.19;5020340;28;45571;-84
2022/05/03 08:16:33;;;;;;;;;34.75;24.75;;;;;25.04;30.98;101360.63;5021174;28;45254;-82
2022/05/03 08:18:59;;;;;;;;;38.25;31.00;;;;;25.18;31.04;101370.63;5017271;28;46425;-84
2022/05/03 08:21:25;;;;;;;;;31.25;27.50;;;;;25.53;30.65;101359.09;5016494;28;45959;-84
2022/05/03 08:23:51;;;;;;;;;46.50;32.25;;;;;25.95;30.61;101357.63;5018441;28;45441;-83
2022/05/03 08:26:17;;;;;;;;;46.75;32.25;;;;;26.74;29.63;101363.94;5018320;28;45657;-84
2022/05/03 08:28:43;;;;;;;;;37.75;32.50;;;;;27.51;29.26;101363.94;5020594;28;45333;-84
2022/05/03 08:31:09;;;;;;;;;32.75;30.00;;;;;27.41;29.18;101358.03;5020644;28;45474;-81
2022/05/03 08:33:35;;;;;;;;;46.25;30.00;;;;;28.43;28.52;101355.41;5019000;28;45476;-84
2022/05/03 08:36:00;;;;;;;;;34.75;29.75;;;;;30.19;27.96;101355.47;5020298;28;45567;-84
2022/05/03 08:43:54;;;;;;;;;28.75;24.25;;;;;34.52;24.13;101352.38;5020951;28;45504;-86
2022/05/03 08:46:21;;;;;;;;;32.25;28.00;;;;;35.50;23.03;101344.66;5021055;28;45407;-85
2022/05/03 08:48:52;;;;;;;;;33.50;23.25;;;;;36.48;22.23;101353.81;5020355;28;46084;-84
2022/05/03 08:51:20;;;;;;;;;36.00;27.50;;;;;36.64;21.17;101350.94;5018220;28;45305;-90
2022/05/03 08:53:46;;;;;;;;;28.50;23.25;;;;;36.70;21.27;101349.06;5022189;28;45436;-89
2022/05/03 08:56:12;;;;;;;;;30.25;23.50;;;;;37.19;20.28;101351.69;5021638;28;45357;-91
2022/05/03 08:58:39;;;;;;;;;39.75;27.00;;;;;38.99;20.09;101337.09;5021060;28;46417;-89
2022/05/03 09:01:04;;;;;;;;;20.75;19.75;;;;;40.23;18.53;101341.66;5021274;28;45241;-86
2022/05/03 09:03:30;;;;;;;;;27.25;24.75;;;;;43.21;17.41;101339.06;5019756;28;45388;-86
2022/05/03 09:05:56;;;;;;;;;27.75;23.50;;;;;42.58;17.60;101341.56;5006728;28;45558;-87
2022/05/03 09:08:23;;;;;;;;;28.00;24.50;;;;;43.38;17.16;101337.63;5011217;28;47119;-85
2022/05/03 09:10:49;;;;;;;;;27.25;22.25;;;;;44.25;16.50;101343.78;5019901;28;45594;-88
2022/05/03 09:13:22;;;;;;;;;25.75;24.00;;;;;44.83;15.31;101345.75;5026634;28;45499;-89
2022/05/03 09:15:55;;;;;;;;;29.75;25.50;;;;;45.51;14.56;101352.84;5025990;28;46468;-88
2022/05/03 09:18:20;;;;;;;;;27.00;23.75;;;;;45.98;15.10;101344.75;5019462;28;46268;-89
2022/05/03 09:26:20;;;;;;;;;28.00;23.25;;;;;46.15;13.81;101350.34;5026749;28;45455;-84
2022/05/03 09:28:50;;;;;;;;;30.75;25.25;;;;;46.03;13.97;101351.00;5029047;28;45772;-91
2022/05/03 09:31:29;;;;;;;;;24.25;21.50;;;;;46.44;13.75;101344.91;5026173;28;45439;-88
2022/05/03 09:33:55;;;;;;;;;21.25;20.75;;;;;47.14;12.96;101335.25;5006098;28;45661;-90
2022/05/03 09:36:21;;;;;;;;;35.00;25.00;;;;;47.21;12.83;101340.31;5021335;28;45404;-89
2022/05/03 09:38:48;;;;;;;;;20.25;17.00;;;;;45.67;12.79;101337.28;5020362;28;46286;-90
2022/05/03 09:41:15;;;;;;;;;26.00;22.25;;;;;47.80;11.55;101345.97;5024924;28;45406;-88
2022/05/03 09:44:00;;;;;;;;;25.00;20.75;;;;;44.89;13.80;101332.50;5007715;28;45438;-88
2022/05/03 09:46:26;;;;;;;;;23.50;20.50;;;;;45.57;13.99;101326.41;5007777;28;45951;-91
2022/05/03 09:48:54;;;;;;;;;22.75;21.00;;;;;46.11;13.18;101333.41;5002452;28;47974;-89
2022/05/03 09:51:21;;;;;;;;;30.50;22.25;;;;;46.83;12.88;101329.91;5020525;28;45459;-88
2022/05/03 09:53:59;;;;;;;;;25.00;23.50;;;;;48.10;11.69;101332.72;5020674;28;45447;-89
2022/05/03 09:56:27;;;;;;;;;24.75;18.75;;;;;47.58;12.37;101335.88;5002706;28;45851;-86
2022/05/03 09:58:58;;;;;;;;;20.25;19.75;;;;;47.60;11.97;101331.56;5002327;28;47543;-87
2022/05/03 10:01:24;;;;;;;;;22.00;18.75;;;;;47.72;11.58;101322.44;5021171;28;45488;-89
2022/05/03 10:03:51;;;;;;;;;22.25;17.75;;;;;47.80;11.74;101327.19;5001411;28;45364;-90
2022/05/03 10:06:20;;;;;;;;;22.25;19.50;;;;;48.11;11.24;101325.97;4985822;28;45390;-89
2022/05/03 10:08:48;;;;;;;;;27.00;20.50;;;;;48.02;10.86;101326.00;5003210;28;45675;-87
2022/05/03 10:11:16;;;;;;;;;21.25;20.50;;;;;48.00;11.25;101322.72;5002108;28;45446;-86
2022/05/03 10:13:41;;;;;;;;;24.50;22.50;;;;;47.24;11.24;101317.28;4997037;28;45279;-86
2022/05/03 10:21:47;;;;;;;;;20.75;20.50;;;;;44.93;11.94;101320.38;5023732;28;45499;-88
2022/05/03 10:24:12;;;;;;;;;24.75;20.00;;;;;44.05;13.26;101315.63;5023497;28;45378;-85
2022/05/03 10:27:05;;;;;;;;;19.50;17.00;;;;;43.79;13.03;101323.72;5005797;28;45523;-90
2022/05/03 10:29:36;;;;;;;;;19.50;16.25;;;;;42.73;12.74;101318.22;5030526;28;47968;-91
2022/05/03 10:32:03;;;;;;;;;18.00;16.50;;;;;41.95;13.14;101311.44;5015284;28;44893;-89
2022/05/03 10:34:49;;;;;;;;;17.50;14.50;;;;;41.12;14.04;101328.50;5018827;28;45412;-88
2022/05/03 10:37:19;;;;;;;;;18.25;16.00;;;;;40.84;14.76;101318.22;5019744;28;45563;-88
2022/05/03 10:39:59;;;;;;;;;21.00;17.00;;;;;40.37;14.45;101315.00;5011978;28;47411;-87
2022/05/03 10:42:29;;;;;;;;;16.25;15.50;;;;;39.90;15.27;101321.09;5021732;28;45297;-87
2022/05/03 10:45:03;;;;;;;;;20.25;16.25;;;;;39.25;15.21;101311.88;5022041;28;45479;-88
2022/05/03 10:47:44;;;;;;;;;16.25;12.50;;;;;38.76;15.84;101316.38;5015432;28;45528;-89
2022/05/03 10:50:12;;;;;;;;;15.75;15.00;;;;;38.81;15.64;101316.38;5003746;28;46818;-88
2022/05/03 10:52:39;;;;;;;;;18.25;16.75;;;;;38.51;15.79;101318.06;5020541;28;45371;-89
2022/05/03 10:55:09;;;;;;;;;19.25;16.25;;;;;38.85;15.41;101314.72;5001963;28;45419;-89
2022/05/03 10:58:12;;;;;;;;;20.25;18.25;;;;;50.09;9.60;101286.97;5011429;28;45372;-89
2022/05/03 11:01:03;;;;;;;;;19.25;14.25;;;;;53.97;7.81;101311.75;5005034;28;46138;-89
2022/05/03 11:03:29;;;;;;;;;13.00;13.00;;;;;54.17;8.04;101303.13;5021857;28;45465;-89
2022/05/03 11:06:20;;;;;;;;;17.00;13.00;;;;;41.19;14.12;101312.34;5023204;28;45396;-88
2022/05/03 11:08:57;;;;;;;;;15.75;15.75;;;;;38.81;15.42;101319.97;5023230;28;45466;-88
2022/05/03 11:14:15;;;;;;;;;18.75;16.75;;;;;38.09;16.14;101306.38;5026648;28;45355;-87
2022/05/03 11:16:42;;;;;;;;;16.25;15.25;;;;;37.57;16.13;101301.75;5024872;28;45493;-87
2022/05/03 11:19:12;;;;;;;;;17.75;17.75;;;;;37.63;16.47;101302.63;5012359;28;45255;-88
2022/05/03 11:21:38;;;;;;;;;15.00;15.00;;;;;37.44;16.21;101291.22;5013530;28;47034;-88
2022/05/03 11:24:04;;;;;;;;;17.75;15.75;;;;;37.00;16.84;101297.00;5024101;28;45438;-88
2022/05/03 11:26:29;;;;;;;;;16.50;14.00;;;;;36.86;17.53;101293.06;5021423;28;45218;-88
2022/05/03 11:29:01;;;;;;;;;18.25;17.75;;;;;37.18;16.54;101295.75;5004063;28;45702;-88
2022/05/03 11:31:28;;;;;;;;;17.50;15.25;;;;;36.62;16.91;101297.25;5008427;28;47479;-86
2022/05/03 11:33:58;;;;;;;;;18.25;15.25;;;;;36.50;17.16;101294.69;5008844;28;46080;-88
2022/05/03 11:36:28;;;;;;;;;16.00;15.75;;;;;36.55;17.70;101293.88;5020874;28;45471;-88
2022/05/03 11:38:55;;;;;;;;;13.25;13.25;;;;;36.68;17.21;101280.56;5015115;28;45578;-86
2022/05/03 11:41:21;;;;;;;;;14.25;13.25;;;;;37.13;17.09;101276.44;5011315;28;48035;-87
2022/05/03 11:43:47;;;;;;;;;17.00;13.50;;;;;37.39;16.84;101266.41;5019338;28;45404;-88
2022/05/03 11:46:18;;;;;;;;;13.50;13.00;;;;;37.09;16.76;101276.13;5014711;28;45449;-87
2022/05/03 11:48:45;;;;;;;;;11.00;11.00;;;;;37.66;16.47;101280.03;5020904;28;45431;-88
2022/05/03 11:56:45;;;;;;;;;14.50;13.25;;;;;37.01;16.53;101265.63;5020732;28;45476;-87
2022/05/03 11:59:11;;;;;;;;;18.00;14.25;;;;;36.54;17.21;101270.22;5020327;28;45491;-88
2022/05/03 12:01:36;;;;;;;;;19.75;14.25;;;;;36.72;17.34;101261.56;5020337;28;46194;-87
2022/05/03 12:04:04;;;;;;;;;15.00;14.00;;;;;36.72;17.33;101270.66;5017611;28;45708;-88